Ocean Grove, NJ (07756)

3:11 PM EST on January 24, 2017 (GMT -0500)
Ocean Grove | | Change Station
Active Advisory: Gale Warning Active Notice: Public Information Statement

Elev 56 ft 40.21 °N, 74.01 °W | Updated 31 seconds ago

Rain
Rain
37.2 °F
Feels Like 30 °F
N
10.0
Wind Variable Wind from West

Today
High -- | Low -- °F
--% Chance of Precip.
Yesterday
High -- | Low -- °F
Precip. -- in
Pressure 29.36 in
Visibility 5.0 miles
Clouds Overcast 800 ft
Windchill 30 °F
Dew Point 36 °F
Humidity 98%
Rainfall 0.14 in
Snow Depth Not available.
7:11 AM 5:05 PM
Waning Crescent, 10% visible
METAR KBLM 241956Z AUTO 31016G23KT 5SM UP BR OVC008 03/02 A2934 RMK AO2 PK WND 29026/1932 RAE29UPB29 CIG 007V012 SLP940 P0016 T00280022
Pressure 29.36 in
Visibility 5.0 miles
Clouds Overcast 800 ft
Windchill 30 °F
Dew Point 36 °F
Humidity 98%
Rainfall 0.14 in
Snow Depth Not available.
7:11 AM 5:05 PM
Waning Crescent, 10% visible
METAR KBLM 241956Z AUTO 31016G23KT 5SM UP BR OVC008 03/02 A2934 RMK AO2 PK WND 29026/1932 RAE29UPB29 CIG 007V012 SLP940 P0016 T00280022

Get Your Daily Forecast Email!

Thanks for signing up!

Be on the lookout for a verification email in your inbox.

You'll start receiving the daily forecast at 8 AM.

×

10-Day Weather Forecast

Almanac

Astronomy

Jan. 24, 2017 Rise Set
Actual Time
Civil Twilight
Nautical Twilight
Astronomical Twilight
Moon
Length of Visible Light
Length of Day
Tomorrow will be .
, % of the Moon is Illuminated

Today's Extremes

State Highs State Lows

Community

WunderPhotos

Upload Photos

1,962,540 photos uploaded!

WunderBlog® & News

Nearby

Air Quality

  Air Quality AQ Index Pollutant
Not available.

Snow Depth

Station Depth Elevation

Earthquake Activity

City Distance Mag. Time & Date
Minimum magnitude displayed is 2.5.

Coastal Water Temperatures

Place Temperature

Stations

Nearby Weather Stations

Station Location Temp. Windchill Dew Point Humidity Wind Precip. Elev Updated Type
                   

Watches & Warnings

Gale Warning
Issued: 2:51 PM EST Jan. 24, 2017 – National Weather Service

... Gale Warning now in effect until 6 am EST Wednesday...

* winds... northwest 20 to 25 kt with gusts up to 35 kt.

* Seas... 6 to 11 feet.

* Location... the Atlantic coastal waters of delware and New
Jersey.

* Timing... sub gale force winds will continue into this evening.
However, winds are expected to increase to gale force later this
evening and continue into the overnight hours.

Precautionary/preparedness actions...

A Gale Warning means winds of 34 to 47 knots are imminent or
occurring. Operating a vessel in gale conditions requires
experience and properly equipped vessels. It is highly
recommended that mariners without the proper experience seek safe
Harbor prior to the onset of gale conditions.